sensor_id;sensor_type;location;lat;lon;timestamp;pressure;altitude;pressure_sealevel;temperature;humidity
11830;BME280;5972;42.134;24.718;2023-03-15T00:00:05;98835.72;;;7.09;78.04
11830;BME280;5972;42.134;24.718;2023-03-15T00:02:34;98826.22;;;7.00;79.46
11830;BME280;5972;42.134;24.718;2023-03-15T00:05:01;98826.31;;;7.03;80.85
11830;BME280;5972;42.134;24.718;2023-03-15T00:07:28;98830.03;;;6.99;81.14
11830;BME280;5972;42.134;24.718;2023-03-15T00:09:55;98821.38;;;6.81;82.77
11830;BME280;5972;42.134;24.718;2023-03-15T00:12:22;98822.28;;;6.97;82.80
11830;BME280;5972;42.134;24.718;2023-03-15T00:14:51;98818.94;;;7.00;79.78
11830;BME280;5972;42.134;24.718;2023-03-15T00:17:17;98819.25;;;6.75;78.86
11830;BME280;5972;42.134;24.718;2023-03-15T00:19:47;98816.16;;;6.85;78.38
11830;BME280;5972;42.134;24.718;2023-03-15T00:22:13;98816.78;;;6.82;77.99
11830;BME280;5972;42.134;24.718;2023-03-15T00:24:40;98815.31;;;6.60;78.30
11830;BME280;5972;42.134;24.718;2023-03-15T00:27:08;98818.56;;;6.65;78.18
11830;BME280;5972;42.134;24.718;2023-03-15T00:29:38;98811.19;;;6.50;78.71
11830;BME280;5972;42.134;24.718;2023-03-15T00:32:06;98804.00;;;6.54;79.21
11830;BME280;5972;42.134;24.718;2023-03-15T00:34:33;98790.94;;;6.20;80.92
11830;BME280;5972;42.134;24.718;2023-03-15T00:37:00;98806.13;;;6.49;80.67
11830;BME280;5972;42.134;24.718;2023-03-15T00:39:26;98803.78;;;6.59;79.81
11830;BME280;5972;42.134;24.718;2023-03-15T00:41:53;98790.69;;;6.46;80.43
11830;BME280;5972;42.134;24.718;2023-03-15T00:44:21;98787.81;;;6.18;82.31
11830;BME280;5972;42.134;24.718;2023-03-15T00:46:49;98791.41;;;6.22;85.56
11830;BME280;5972;42.134;24.718;2023-03-15T00:49:17;98787.16;;;5.88;90.27
11830;BME280;5972;42.134;24.718;2023-03-15T00:51:43;98789.72;;;6.17;90.64
11830;BME280;5972;42.134;24.718;2023-03-15T00:54:10;98782.88;;;6.20;89.93
11830;BME280;5972;42.134;24.718;2023-03-15T00:56:38;98787.63;;;6.23;90.24
11830;BME280;5972;42.134;24.718;2023-03-15T00:59:05;98784.78;;;6.19;88.65
11830;BME280;5972;42.134;24.718;2023-03-15T01:01:33;98782.47;;;6.42;87.58
11830;BME280;5972;42.134;24.718;2023-03-15T01:03:59;98777.91;;;6.43;87.85
11830;BME280;5972;42.134;24.718;2023-03-15T01:06:28;98776.56;;;6.49;88.24
11830;BME280;5972;42.134;24.718;2023-03-15T01:08:55;98778.47;;;6.60;86.20
11830;BME280;5972;42.134;24.718;2023-03-15T01:11:24;98766.72;;;6.65;85.62
11830;BME280;5972;42.134;24.718;2023-03-15T01:13:52;98763.03;;;6.69;84.62
11830;BME280;5972;42.134;24.718;2023-03-15T01:16:19;98771.09;;;6.69;83.46
11830;BME280;5972;42.134;24.718;2023-03-15T01:18:46;98770.41;;;6.60;82.10
11830;BME280;5972;42.134;24.718;2023-03-15T01:21:14;98774.13;;;6.56;83.21
11830;BME280;5972;42.134;24.718;2023-03-15T01:23:42;98749.56;;;6.33;84.41
11830;BME280;5972;42.134;24.718;2023-03-15T01:26:11;98772.97;;;6.33;87.51
11830;BME280;5972;42.134;24.718;2023-03-15T01:28:39;98768.66;;;6.19;91.65
11830;BME280;5972;42.134;24.718;2023-03-15T01:31:07;98759.72;;;6.15;93.16
11830;BME280;5972;42.134;24.718;2023-03-15T01:33:35;98757.47;;;6.05;93.43
11830;BME280;5972;42.134;24.718;2023-03-15T01:36:04;98754.75;;;5.93;96.73
11830;BME280;5972;42.134;24.718;2023-03-15T01:38:31;98753.38;;;5.87;98.49
11830;BME280;5972;42.134;24.718;2023-03-15T01:41:00;98752.88;;;5.73;100.00
11830;BME280;5972;42.134;24.718;2023-03-15T01:43:28;98745.66;;;5.65;100.00
11830;BME280;5972;42.134;24.718;2023-03-15T01:46:04;98739.66;;;5.47;100.00
11830;BME280;5972;42.134;24.718;2023-03-15T01:48:36;98747.84;;;5.51;100.00
11830;BME280;5972;42.134;24.718;2023-03-15T01:51:08;98748.69;;;5.42;100.00
11830;BME280;5972;42.134;24.718;2023-03-15T01:53:37;98747.47;;;5.40;100.00
11830;BME280;5972;42.134;24.718;2023-03-15T01:56:07;98750.84;;;5.49;100.00
11830;BME280;5972;42.134;24.718;2023-03-15T01:58:35;98755.91;;;5.51;100.00
11830;BME280;5972;42.134;24.718;2023-03-15T02:01:03;98754.44;;;5.53;100.00
11830;BME280;5972;42.134;24.718;2023-03-15T02:03:34;98751.66;;;5.50;100.00
11830;BME280;5972;42.134;24.718;2023-03-15T02:06:05;98748.69;;;5.42;100.00
11830;BME280;5972;42.134;24.718;2023-03-15T02:08:36;98743.66;;;5.41;100.00
11830;BME280;5972;42.134;24.718;2023-03-15T02:11:05;98741.50;;;5.34;100.00
11830;BME280;5972;42.134;24.718;2023-03-15T02:13:33;98746.63;;;5.27;100.00
11830;BME280;5972;42.134;24.718;2023-03-15T02:16:01;98745.34;;;5.25;100.00
11830;BME280;5972;42.134;24.718;2023-03-15T02:18:31;98741.97;;;5.16;100.00
11830;BME280;5972;42.134;24.718;2023-03-15T02:21:06;98731.75;;;5.09;100.00
11830;BME280;5972;42.134;24.718;2023-03-15T02:23:35;98703.28;;;4.96;100.00
11830;BME280;5972;42.134;24.718;2023-03-15T02:26:11;98721.88;;;5.01;100.00
11830;BME280;5972;42.134;24.718;2023-03-15T02:28:41;98729.06;;;4.88;100.00
11830;BME280;5972;42.134;24.718;2023-03-15T02:31:09;98721.22;;;4.83;100.00
11830;BME280;5972;42.134;24.718;2023-03-15T02:33:40;98722.44;;;4.86;100.00
11830;BME280;5972;42.134;24.718;2023-03-15T02:36:13;98721.25;;;4.75;100.00
11830;BME280;5972;42.134;24.718;2023-03-15T02:38:40;98721.22;;;4.83;100.00
11830;BME280;5972;42.134;24.718;2023-03-15T02:41:07;98724.41;;;4.77;100.00
11830;BME280;5972;42.134;24.718;2023-03-15T02:43:35;98730.47;;;4.86;100.00
11830;BME280;5972;42.134;24.718;2023-03-15T02:46:04;98727.75;;;4.94;100.00
11830;BME280;5972;42.134;24.718;2023-03-15T02:48:33;98697.91;;;4.75;100.00
11830;BME280;5972;42.134;24.718;2023-03-15T02:51:00;98716.69;;;4.96;100.00
11830;BME280;5972;42.134;24.718;2023-03-15T02:53:28;98712.91;;;4.97;100.00
11830;BME280;5972;42.134;24.718;2023-03-15T02:55:55;98710.09;;;4.93;100.00
11830;BME280;5972;42.134;24.718;2023-03-15T02:58:21;98704.75;;;4.93;100.00
11830;BME280;5972;42.134;24.718;2023-03-15T03:00:48;98705.38;;;4.90;100.00
11830;BME280;5972;42.134;24.718;2023-03-15T03:03:18;98697.22;;;4.87;100.00
11830;BME280;5972;42.134;24.718;2023-03-15T03:05:45;98703.84;;;4.89;100.00
11830;BME280;5972;42.134;24.718;2023-03-15T03:08:12;98708.53;;;4.92;100.00
11830;BME280;5972;42.134;24.718;2023-03-15T03:10:40;98704.28;;;4.91;100.00
11830;BME280;5972;42.134;24.718;2023-03-15T03:13:07;98705.13;;;4.83;100.00
11830;BME280;5972;42.134;24.718;2023-03-15T03:15:34;98705.13;;;4.83;100.00
11830;BME280;5972;42.134;24.718;2023-03-15T03:18:01;98709.03;;;4.86;100.00
11830;BME280;5972;42.134;24.718;2023-03-15T03:20:29;98701.66;;;4.83;100.00
11830;BME280;5972;42.134;24.718;2023-03-15T03:22:56;98701.16;;;4.89;100.00
11830;BME280;5972;42.134;24.718;2023-03-15T03:25:23;98692.75;;;4.91;100.00
11830;BME280;5972;42.134;24.718;2023-03-15T03:27:51;98690.22;;;4.94;100.00
11830;BME280;5972;42.134;24.718;2023-03-15T03:30:21;98651.50;;;4.63;100.00
11830;BME280;5972;42.134;24.718;2023-03-15T03:32:48;98681.53;;;4.77;100.00
11830;BME280;5972;42.134;24.718;2023-03-15T03:35:16;98687.88;;;4.93;100.00
11830;BME280;5972;42.134;24.718;2023-03-15T03:37:44;98685.50;;;4.91;100.00
11830;BME280;5972;42.134;24.718;2023-03-15T03:40:12;98679.84;;;4.93;100.00
11830;BME280;5972;42.134;24.718;2023-03-15T03:42:39;98688.66;;;4.93;100.00
11830;BME280;5972;42.134;24.718;2023-03-15T03:45:07;98685.19;;;4.93;100.00
11830;BME280;5972;42.134;24.718;2023-03-15T03:47:33;98681.72;;;4.92;100.00
11830;BME280;5972;42.134;24.718;2023-03-15T03:50:00;98678.91;;;4.89;100.00
11830;BME280;5972;42.134;24.718;2023-03-15T03:52:27;98629.13;;;4.67;100.00
11830;BME280;5972;42.134;24.718;2023-03-15T03:54:56;98682.81;;;4.91;100.00
11830;BME280;5972;42.134;24.718;2023-03-15T03:57:23;98691.53;;;4.88;100.00
11830;BME280;5972;42.134;24.718;2023-03-15T03:59:50;98700.22;;;4.85;100.00
11830;BME280;5972;42.134;24.718;2023-03-15T04:02:17;98697.72;;;4.80;100.00
11830;BME280;5972;42.134;24.718;2023-03-15T04:04:43;98698.06;;;4.79;100.00
11830;BME280;5972;42.134;24.718;2023-03-15T04:07:14;98685.50;;;4.71;100.00
11830;BME280;5972;42.134;24.718;2023-03-15T04:09:41;98678.38;;;4.75;100.00
11830;BME280;5972;42.134;24.718;2023-03-15T04:12:10;98681.22;;;4.78;100.00
11830;BME280;5972;42.134;24.718;2023-03-15T04:14:36;98685.31;;;4.76;100.00
11830;BME280;5972;42.134;24.718;2023-03-15T04:17:03;98694.59;;;4.78;100.00
11830;BME280;5972;42.134;24.718;2023-03-15T04:19:30;98684.00;;;4.82;100.00
11830;BME280;5972;42.134;24.718;2023-03-15T04:21:57;98676.28;;;4.80;100.00
11830;BME280;5972;42.134;24.718;2023-03-15T04:24:31;98663.75;;;4.72;100.00
11830;BME280;5972;42.134;24.718;2023-03-15T04:26:58;98660.78;;;4.65;100.00
11830;BME280;5972;42.134;24.718;2023-03-15T04:29:26;98661.91;;;4.64;100.00
11830;BME280;5972;42.134;24.718;2023-03-15T04:31:53;98658.78;;;4.62;100.00
11830;BME280;5972;42.134;24.718;2023-03-15T04:34:26;98654.66;;;4.65;100.00
11830;BME280;5972;42.134;24.718;2023-03-15T04:36:54;98656.09;;;4.62;100.00
11830;BME280;5972;42.134;24.718;2023-03-15T04:39:21;98667.41;;;4.68;100.00
11830;BME280;5972;42.134;24.718;2023-03-15T04:41:48;98666.56;;;4.76;100.00
11830;BME280;5972;42.134;24.718;2023-03-15T04:44:15;98672.03;;;4.79;100.00
11830;BME280;5972;42.134;24.718;2023-03-15T04:46:43;98681.31;;;4.82;100.00
11830;BME280;5972;42.134;24.718;2023-03-15T04:49:10;98685.50;;;4.91;100.00
11830;BME280;5972;42.134;24.718;2023-03-15T04:51:37;98678.06;;;4.97;100.00
11830;BME280;5972;42.134;24.718;2023-03-15T04:54:04;98679.00;;;5.01;100.00
11830;BME280;5972;42.134;24.718;2023-03-15T04:56:31;98674.97;;;5.07;100.00
11830;BME280;5972;42.134;24.718;2023-03-15T04:58:58;98682.69;;;5.09;100.00
11830;BME280;5972;42.134;24.718;2023-03-15T05:01:28;98689.31;;;5.11;100.00
11830;BME280;5972;42.134;24.718;2023-03-15T05:03:57;98682.06;;;5.12;100.00
11830;BME280;5972;42.134;24.718;2023-03-15T05:06:24;98679.59;;;5.07;100.00
11830;BME280;5972;42.134;24.718;2023-03-15T05:08:50;98678.66;;;5.02;100.00
11830;BME280;5972;42.134;24.718;2023-03-15T05:11:17;98678.72;;;4.94;100.00
11830;BME280;5972;42.134;24.718;2023-03-15T05:13:44;98682.25;;;5.07;100.00
11830;BME280;5972;42.134;24.718;2023-03-15T05:16:11;98693.56;;;5.12;100.00
11830;BME280;5972;42.134;24.718;2023-03-15T05:18:38;98668.19;;;5.10;100.00
11830;BME280;5972;42.134;24.718;2023-03-15T05:21:07;98692.31;;;5.30;100.00
11830;BME280;5972;42.134;24.718;2023-03-15T05:23:34;98689.09;;;5.37;100.00
11830;BME280;5972;42.134;24.718;2023-03-15T05:26:01;98695.72;;;5.39;100.00
11830;BME280;5972;42.134;24.718;2023-03-15T05:28:28;98693.19;;;5.22;100.00
11830;BME280;5972;42.134;24.718;2023-03-15T05:30:56;98697.47;;;5.35;100.00
11830;BME280;5972;42.134;24.718;2023-03-15T05:33:23;98695.50;;;5.44;100.00
11830;BME280;5972;42.134;24.718;2023-03-15T05:35:50;98688.25;;;5.45;100.00
11830;BME280;5972;42.134;24.718;2023-03-15T05:38:22;98672.00;;;5.41;100.00
11830;BME280;5972;42.134;24.718;2023-03-15T05:40:51;98682.66;;;5.50;100.00
11830;BME280;5972;42.134;24.718;2023-03-15T05:43:19;98678.47;;;5.61;100.00
11830;BME280;5972;42.134;24.718;2023-03-15T05:45:46;98676.00;;;5.56;100.00
11830;BME280;5972;42.134;24.718;2023-03-15T05:48:13;98668.31;;;5.67;100.00
11830;BME280;5972;42.134;24.718;2023-03-15T05:50:40;98676.25;;;5.75;100.00
11830;BME280;5972;42.134;24.718;2023-03-15T05:53:08;98677.94;;;5.80;100.00
11830;BME280;5972;42.134;24.718;2023-03-15T05:55:36;98677.09;;;5.88;100.00
11830;BME280;5972;42.134;24.718;2023-03-15T05:58:06;98662.25;;;5.91;100.00
11830;BME280;5972;42.134;24.718;2023-03-15T06:00:33;98677.47;;;6.11;100.00
11830;BME280;5972;42.134;24.718;2023-03-15T06:03:00;98654.75;;;6.20;100.00
11830;BME280;5972;42.134;24.718;2023-03-15T06:05:27;98670.41;;;6.55;100.00
11830;BME280;5972;42.134;24.718;2023-03-15T06:07:54;98674.94;;;7.31;96.16
11830;BME280;5972;42.134;24.718;2023-03-15T06:10:21;98673.63;;;8.12;83.25
11830;BME280;5972;42.134;24.718;2023-03-15T06:12:49;98675.63;;;10.68;65.65
11830;BME280;5972;42.134;24.718;2023-03-15T06:15:17;98671.25;;;12.20;54.46
11830;BME280;5972;42.134;24.718;2023-03-15T06:17:44;98669.44;;;12.97;50.30
11830;BME280;5972;42.134;24.718;2023-03-15T06:20:11;98685.25;;;12.84;49.73
11830;BME280;5972;42.134;24.718;2023-03-15T06:22:38;98672.91;;;12.35;49.47
11830;BME280;5972;42.134;24.718;2023-03-15T06:25:06;98673.03;;;12.53;50.61
11830;BME280;5972;42.134;24.718;2023-03-15T06:27:33;98672.63;;;12.47;50.54
11830;BME280;5972;42.134;24.718;2023-03-15T06:30:01;98629.81;;;10.53;55.14
11830;BME280;5972;42.134;24.718;2023-03-15T06:32:28;98665.06;;;11.49;54.97
11830;BME280;5972;42.134;24.718;2023-03-15T06:34:55;98666.84;;;11.72;54.88
11830;BME280;5972;42.134;24.718;2023-03-15T06:37:21;98679.22;;;11.69;56.41
11830;BME280;5972;42.134;24.718;2023-03-15T06:39:48;98671.56;;;11.41;58.94
11830;BME280;5972;42.134;24.718;2023-03-15T06:42:16;98646.19;;;11.23;61.22
11830;BME280;5972;42.134;24.718;2023-03-15T06:44:42;98670.34;;;11.05;62.13
11830;BME280;5972;42.134;24.718;2023-03-15T06:47:11;98675.28;;;10.21;67.32
11830;BME280;5972;42.134;24.718;2023-03-15T06:49:37;98683.81;;;10.23;69.44
11830;BME280;5972;42.134;24.718;2023-03-15T06:52:05;98679.19;;;10.23;70.09
11830;BME280;5972;42.134;24.718;2023-03-15T06:54:32;98675.63;;;10.42;68.39
11830;BME280;5972;42.134;24.718;2023-03-15T06:56:59;98681.69;;;10.35;69.69
11830;BME280;5972;42.134;24.718;2023-03-15T06:59:26;98669.75;;;11.52;63.77
11830;BME280;5972;42.134;24.718;2023-03-15T07:01:52;98676.09;;;12.00;58.83
11830;BME280;5972;42.134;24.718;2023-03-15T07:04:21;98665.66;;;13.15;53.10
11830;BME280;5972;42.134;24.718;2023-03-15T07:06:47;98672.97;;;13.08;52.11
11830;BME280;5972;42.134;24.718;2023-03-15T07:09:14;98663.41;;;12.15;53.65
11830;BME280;5972;42.134;24.718;2023-03-15T07:11:41;98661.41;;;11.31;57.72
11830;BME280;5972;42.134;24.718;2023-03-15T07:14:08;98646.75;;;10.76;61.04
11830;BME280;5972;42.134;24.718;2023-03-15T07:16:34;98665.06;;;11.16;62.55
11830;BME280;5972;42.134;24.718;2023-03-15T07:19:02;98666.34;;;11.96;58.81
11830;BME280;5972;42.134;24.718;2023-03-15T07:21:30;98665.78;;;13.44;54.08
11830;BME280;5972;42.134;24.718;2023-03-15T07:23:57;98672.56;;;14.52;47.31
11830;BME280;5972;42.134;24.718;2023-03-15T07:26:23;98673.22;;;12.81;50.96
11830;BME280;5972;42.134;24.718;2023-03-15T07:28:50;98666.53;;;12.14;56.89
11830;BME280;5972;42.134;24.718;2023-03-15T07:31:17;98653.28;;;13.18;51.74
11830;BME280;5972;42.134;24.718;2023-03-15T07:33:44;98645.78;;;13.04;51.68
11830;BME280;5972;42.134;24.718;2023-03-15T07:36:10;98648.84;;;12.34;53.62
11830;BME280;5972;42.134;24.718;2023-03-15T07:38:39;98647.22;;;11.78;56.05
11830;BME280;5972;42.134;24.718;2023-03-15T07:41:06;98637.16;;;11.79;56.99
11830;BME280;5972;42.134;24.718;2023-03-15T07:43:33;98644.41;;;11.71;56.42
11830;BME280;5972;42.134;24.718;2023-03-15T07:46:00;98642.63;;;11.15;60.23
11830;BME280;5972;42.134;24.718;2023-03-15T07:48:27;98647.13;;;11.04;62.33
11830;BME280;5972;42.134;24.718;2023-03-15T07:50:55;98651.72;;;11.00;63.25
11830;BME280;5972;42.134;24.718;2023-03-15T07:53:22;98636.41;;;10.55;65.26
11830;BME280;5972;42.134;24.718;2023-03-15T07:55:50;98640.34;;;10.12;69.19
11830;BME280;5972;42.134;24.718;2023-03-15T07:58:17;98640.50;;;9.96;74.36
11830;BME280;5972;42.134;24.718;2023-03-15T08:00:44;98641.31;;;10.46;70.32
11830;BME280;5972;42.134;24.718;2023-03-15T08:03:11;98641.84;;;10.85;67.03
11830;BME280;5972;42.134;24.718;2023-03-15T08:05:38;98640.16;;;10.73;66.27
11830;BME280;5972;42.134;24.718;2023-03-15T08:08:05;98639.03;;;10.78;67.26
11830;BME280;5972;42.134;24.718;2023-03-15T08:10:32;98628.59;;;10.76;67.53
11830;BME280;5972;42.134;24.718;2023-03-15T08:13:00;98609.00;;;10.57;68.55
11830;BME280;5972;42.134;24.718;2023-03-15T08:15:27;98604.53;;;10.68;69.73
11830;BME280;5972;42.134;24.718;2023-03-15T08:17:54;98590.84;;;11.20;65.48
11830;BME280;5972;42.134;24.718;2023-03-15T08:20:21;98594.41;;;11.65;62.27
11830;BME280;5972;42.134;24.718;2023-03-15T08:22:48;98583.69;;;12.20;58.84
11830;BME280;5972;42.134;24.718;2023-03-15T08:25:19;98590.47;;;11.99;57.84
11830;BME280;5972;42.134;24.718;2023-03-15T08:27:46;98591.75;;;11.72;59.33
11830;BME280;5972;42.134;24.718;2023-03-15T08:30:16;98572.72;;;11.65;58.87
11830;BME280;5972;42.134;24.718;2023-03-15T08:32:45;98572.63;;;11.54;60.78
11830;BME280;5972;42.134;24.718;2023-03-15T08:35:14;98580.63;;;11.40;61.56
11830;BME280;5972;42.134;24.718;2023-03-15T08:37:41;98570.47;;;11.30;63.34
11830;BME280;5972;42.134;24.718;2023-03-15T08:40:13;98546.97;;;12.36;59.28
11830;BME280;5972;42.134;24.718;2023-03-15T08:42:39;98566.28;;;13.11;53.28
11830;BME280;5972;42.134;24.718;2023-03-15T08:45:08;98564.25;;;12.83;51.78
11830;BME280;5972;42.134;24.718;2023-03-15T08:47:36;98576.44;;;12.41;54.18
11830;BME280;5972;42.134;24.718;2023-03-15T08:50:05;98567.41;;;12.20;54.85
11830;BME280;5972;42.134;24.718;2023-03-15T08:52:32;98577.41;;;12.08;55.42
11830;BME280;5972;42.134;24.718;2023-03-15T08:55:00;98580.34;;;11.93;58.37
11830;BME280;5972;42.134;24.718;2023-03-15T08:57:28;98572.59;;;12.46;55.24
11830;BME280;5972;42.134;24.718;2023-03-15T08:59:58;98579.88;;;12.31;53.40
11830;BME280;5972;42.134;24.718;2023-03-15T09:02:26;98568.69;;;13.23;51.47
11830;BME280;5972;42.134;24.718;2023-03-15T09:04:54;98473.25;;;13.42;48.55
11830;BME280;5972;42.134;24.718;2023-03-15T09:07:21;98565.63;;;14.52;46.72
11830;BME280;5972;42.134;24.718;2023-03-15T09:09:48;98556.03;;;15.17;45.24
11830;BME280;5972;42.134;24.718;2023-03-15T09:12:19;98561.25;;;15.63;43.18
11830;BME280;5972;42.134;24.718;2023-03-15T09:14:46;98553.28;;;16.31;42.10
11830;BME280;5972;42.134;24.718;2023-03-15T09:17:13;98540.44;;;15.87;41.82
11830;BME280;5972;42.134;24.718;2023-03-15T09:19:40;98546.09;;;16.06;41.38
11830;BME280;5972;42.134;24.718;2023-03-15T09:22:08;98542.91;;;16.15;40.87
11830;BME280;5972;42.134;24.718;2023-03-15T09:24:36;98535.63;;;15.46;41.84
11830;BME280;5972;42.134;24.718;2023-03-15T09:27:03;98542.34;;;15.27;42.34
11830;BME280;5972;42.134;24.718;2023-03-15T09:29:30;98535.47;;;15.05;43.24
11830;BME280;5972;42.134;24.718;2023-03-15T09:31:57;98541.81;;;14.77;43.21
11830;BME280;5972;42.134;24.718;2023-03-15T09:34:26;98541.88;;;14.70;43.98
11830;BME280;5972;42.134;24.718;2023-03-15T09:36:53;98546.63;;;15.32;42.92
11830;BME280;5972;42.134;24.718;2023-03-15T09:39:21;98539.81;;;16.13;41.18
11830;BME280;5972;42.134;24.718;2023-03-15T09:41:49;98527.69;;;16.89;39.49
11830;BME280;5972;42.134;24.718;2023-03-15T09:44:35;98539.63;;;16.72;39.55
11830;BME280;5972;42.134;24.718;2023-03-15T09:47:15;98531.31;;;17.66;38.28
11830;BME280;5972;42.134;24.718;2023-03-15T09:49:49;98526.69;;;18.53;36.29
11830;BME280;5972;42.134;24.718;2023-03-15T09:52:32;98515.78;;;19.08;35.56
11830;BME280;5972;42.134;24.718;2023-03-15T09:55:09;98517.50;;;19.19;34.95
11830;BME280;5972;42.134;24.718;2023-03-15T09:57:40;98516.63;;;18.46;35.21
11830;BME280;5972;42.134;24.718;2023-03-15T10:00:12;98517.78;;;19.24;34.66
11830;BME280;5972;42.134;24.718;2023-03-15T10:02:44;98512.38;;;18.85;34.83
11830;BME280;5972;42.134;24.718;2023-03-15T10:05:15;98507.88;;;18.94;34.80
11830;BME280;5972;42.134;24.718;2023-03-15T10:07:45;98502.72;;;18.37;35.22
11830;BME280;5972;42.134;24.718;2023-03-15T10:10:18;98499.06;;;18.01;35.80
11830;BME280;5972;42.134;24.718;2023-03-15T10:12:52;98497.41;;;18.07;35.79
11830;BME280;5972;42.134;24.718;2023-03-15T10:15:29;98470.34;;;17.16;36.29
11830;BME280;5972;42.134;24.718;2023-03-15T10:18:26;98503.66;;;16.77;37.27
11830;BME280;5972;42.134;24.718;2023-03-15T10:20:59;98476.81;;;16.34;37.68
11830;BME280;5972;42.134;24.718;2023-03-15T10:23:37;98507.22;;;16.36;38.46
11830;BME280;5972;42.134;24.718;2023-03-15T10:26:12;98507.84;;;16.13;38.84
11830;BME280;5972;42.134;24.718;2023-03-15T10:28:41;98509.41;;;16.11;39.24
11830;BME280;5972;42.134;24.718;2023-03-15T10:31:12;98506.88;;;15.90;39.83
11830;BME280;5972;42.134;24.718;2023-03-15T10:33:39;98494.41;;;15.92;40.33
11830;BME280;5972;42.134;24.718;2023-03-15T10:36:13;98458.66;;;15.79;40.31
11830;BME280;5972;42.134;24.718;2023-03-15T10:38:40;98496.28;;;15.99;40.09
11830;BME280;5972;42.134;24.718;2023-03-15T10:41:11;98484.72;;;15.88;39.99
11830;BME280;5972;42.134;24.718;2023-03-15T10:43:40;98487.50;;;15.80;40.27
11830;BME280;5972;42.134;24.718;2023-03-15T10:46:08;98485.09;;;15.86;40.27
11830;BME280;5972;42.134;24.718;2023-03-15T10:48:37;98479.88;;;15.58;41.31
11830;BME280;5972;42.134;24.718;2023-03-15T10:51:06;98470.94;;;15.50;41.41
11830;BME280;5972;42.134;24.718;2023-03-15T10:53:33;98474.53;;;14.78;42.85
11830;BME280;5972;42.134;24.718;2023-03-15T10:56:04;98466.13;;;15.20;42.42
11830;BME280;5972;42.134;24.718;2023-03-15T10:58:41;98470.16;;;15.50;41.53
11830;BME280;5972;42.134;24.718;2023-03-15T11:01:21;98454.56;;;15.57;41.69
11830;BME280;5972;42.134;24.718;2023-03-15T11:04:00;98463.50;;;15.61;41.24
11830;BME280;5972;42.134;24.718;2023-03-15T11:06:27;98459.19;;;15.09;41.50
11830;BME280;5972;42.134;24.718;2023-03-15T11:09:07;98425.06;;;14.90;42.85
11830;BME280;5972;42.134;24.718;2023-03-15T11:11:49;98469.50;;;15.35;42.66
11830;BME280;5972;42.134;24.718;2023-03-15T11:14:18;98476.28;;;15.71;41.82
11830;BME280;5972;42.134;24.718;2023-03-15T11:16:47;98469.06;;;15.92;41.34
11830;BME280;5972;42.134;24.718;2023-03-15T11:19:16;98463.72;;;15.77;41.18
11830;BME280;5972;42.134;24.718;2023-03-15T11:21:44;98458.84;;;15.58;41.82
11830;BME280;5972;42.134;24.718;2023-03-15T11:24:21;98457.63;;;15.63;42.04
11830;BME280;5972;42.134;24.718;2023-03-15T11:26:49;98451.91;;;15.47;42.61
11830;BME280;5972;42.134;24.718;2023-03-15T11:29:22;98448.78;;;15.52;43.00
11830;BME280;5972;42.134;24.718;2023-03-15T11:31:51;98442.88;;;15.57;43.01
11830;BME280;5972;42.134;24.718;2023-03-15T11:34:25;98445.06;;;15.72;42.76
11830;BME280;5972;42.134;24.718;2023-03-15T11:36:59;98450.66;;;15.58;42.60
11830;BME280;5972;42.134;24.718;2023-03-15T11:39:35;98451.78;;;15.64;42.73
11830;BME280;5972;42.134;24.718;2023-03-15T11:42:05;98449.75;;;15.24;43.06
11830;BME280;5972;42.134;24.718;2023-03-15T11:44:40;98446.31;;;15.13;43.71
11830;BME280;5972;42.134;24.718;2023-03-15T11:47:15;98430.97;;;14.81;44.02
11830;BME280;5972;42.134;24.718;2023-03-15T11:49:48;98440.31;;;14.73;44.35
11830;BME280;5972;42.134;24.718;2023-03-15T11:52:17;98436.34;;;14.92;44.03
11830;BME280;5972;42.134;24.718;2023-03-15T11:54:45;98403.31;;;14.83;44.20
11830;BME280;5972;42.134;24.718;2023-03-15T11:57:41;98418.34;;;15.09;43.75
11830;BME280;5972;42.134;24.718;2023-03-15T12:00:25;98410.59;;;15.04;43.79
11830;BME280;5972;42.134;24.718;2023-03-15T12:03:35;98419.72;;;15.27;43.44
11830;BME280;5972;42.134;24.718;2023-03-15T12:08:52;98415.69;;;14.94;43.91
11830;BME280;5972;42.134;24.718;2023-03-15T12:11:38;98401.31;;;14.90;43.94
11830;BME280;5972;42.134;24.718;2023-03-15T12:14:24;98400.72;;;14.65;44.60
11830;BME280;5972;42.134;24.718;2023-03-15T12:19:37;98402.25;;;14.70;45.05
11830;BME280;5972;42.134;24.718;2023-03-15T12:22:14;98394.00;;;14.80;44.99
11830;BME280;5972;42.134;24.718;2023-03-15T12:24:43;98394.88;;;14.63;44.86
11830;BME280;5972;42.134;24.718;2023-03-15T12:27:14;98363.81;;;14.57;45.00
11830;BME280;5972;42.134;24.718;2023-03-15T12:29:43;98393.97;;;14.84;44.40
11830;BME280;5972;42.134;24.718;2023-03-15T12:32:13;98398.13;;;15.03;44.07
11830;BME280;5972;42.134;24.718;2023-03-15T12:34:45;98394.19;;;15.07;42.87
11830;BME280;5972;42.134;24.718;2023-03-15T12:37:16;98377.13;;;15.03;42.29
11830;BME280;5972;42.134;24.718;2023-03-15T12:39:46;98371.31;;;14.97;42.12
11830;BME280;5972;42.134;24.718;2023-03-15T12:45:40;98373.81;;;14.74;42.61
11830;BME280;5972;42.134;24.718;2023-03-15T12:48:22;98373.06;;;14.70;42.40
11830;BME280;5972;42.134;24.718;2023-03-15T12:50:58;98366.47;;;14.68;42.20
11830;BME280;5972;42.134;24.718;2023-03-15T12:53:45;98380.09;;;14.61;42.21
11830;BME280;5972;42.134;24.718;2023-03-15T12:56:31;98378.53;;;14.63;42.29
11830;BME280;5972;42.134;24.718;2023-03-15T12:59:03;98376.56;;;14.67;42.49
11830;BME280;5972;42.134;24.718;2023-03-15T13:01:31;98378.88;;;14.72;42.66
11830;BME280;5972;42.134;24.718;2023-03-15T13:04:00;98371.81;;;14.82;42.15
11830;BME280;5972;42.134;24.718;2023-03-15T13:06:36;98370.72;;;14.69;42.56
11830;BME280;5972;42.134;24.718;2023-03-15T13:09:12;98367.72;;;14.49;43.39
11830;BME280;5972;42.134;24.718;2023-03-15T13:11:43;98371.34;;;14.25;43.75
11830;BME280;5972;42.134;24.718;2023-03-15T13:14:31;98363.22;;;14.10;44.55
11830;BME280;5972;42.134;24.718;2023-03-15T13:17:05;98353.78;;;14.33;44.35
11830;BME280;5972;42.134;24.718;2023-03-15T13:19:45;98356.94;;;14.31;44.71
11830;BME280;5972;42.134;24.718;2023-03-15T13:22:17;98351.09;;;14.29;44.77